sensor_id;sensor_type;location;lat;lon;timestamp;temperature;humidity
79301;SHT31;68755;51.984;5.646;2023-03-26T00:00:35;10.7;73.6
79301;SHT31;68755;51.984;5.646;2023-03-26T00:03:07;10.7;73.5
79301;SHT31;68755;51.984;5.646;2023-03-26T00:05:37;10.7;73.8
79301;SHT31;68755;51.984;5.646;2023-03-26T00:08:08;10.7;73.7
79301;SHT31;68755;51.984;5.646;2023-03-26T00:10:39;10.7;73.7
79301;SHT31;68755;51.984;5.646;2023-03-26T00:13:10;10.8;73.9
79301;SHT31;68755;51.984;5.646;2023-03-26T00:15:41;10.8;73.7
79301;SHT31;68755;51.984;5.646;2023-03-26T00:18:11;10.8;73.8
79301;SHT31;68755;51.984;5.646;2023-03-26T00:20:40;10.7;74.2
79301;SHT31;68755;51.984;5.646;2023-03-26T00:23:12;10.7;74.2
79301;SHT31;68755;51.984;5.646;2023-03-26T00:25:42;10.7;74.5
79301;SHT31;68755;51.984;5.646;2023-03-26T00:28:12;10.7;74.7
79301;SHT31;68755;51.984;5.646;2023-03-26T00:30:43;10.7;75.0
79301;SHT31;68755;51.984;5.646;2023-03-26T00:33:14;10.7;75.0
79301;SHT31;68755;51.984;5.646;2023-03-26T00:35:45;10.7;75.2
79301;SHT31;68755;51.984;5.646;2023-03-26T00:38:20;10.7;75.3
79301;SHT31;68755;51.984;5.646;2023-03-26T00:40:51;10.7;75.4
79301;SHT31;68755;51.984;5.646;2023-03-26T00:43:21;10.7;75.4
79301;SHT31;68755;51.984;5.646;2023-03-26T00:45:54;10.7;75.7
79301;SHT31;68755;51.984;5.646;2023-03-26T00:48:24;10.7;75.7
79301;SHT31;68755;51.984;5.646;2023-03-26T00:50:57;10.7;75.4
79301;SHT31;68755;51.984;5.646;2023-03-26T00:53:27;10.7;75.7
79301;SHT31;68755;51.984;5.646;2023-03-26T00:55:58;10.7;75.7
79301;SHT31;68755;51.984;5.646;2023-03-26T00:58:28;10.7;75.9
79301;SHT31;68755;51.984;5.646;2023-03-26T01:01:02;10.7;75.8
79301;SHT31;68755;51.984;5.646;2023-03-26T01:03:34;10.7;75.9
79301;SHT31;68755;51.984;5.646;2023-03-26T01:06:06;10.7;76.2
79301;SHT31;68755;51.984;5.646;2023-03-26T01:08:40;10.7;76.0
79301;SHT31;68755;51.984;5.646;2023-03-26T01:11:14;10.7;76.3
79301;SHT31;68755;51.984;5.646;2023-03-26T01:13:48;10.7;76.5
79301;SHT31;68755;51.984;5.646;2023-03-26T01:16:24;10.8;76.5
79301;SHT31;68755;51.984;5.646;2023-03-26T01:18:54;10.8;76.1
79301;SHT31;68755;51.984;5.646;2023-03-26T01:21:28;10.9;75.9
79301;SHT31;68755;51.984;5.646;2023-03-26T01:24:03;10.9;75.9
79301;SHT31;68755;51.984;5.646;2023-03-26T01:27:55;10.9;75.9
79301;SHT31;68755;51.984;5.646;2023-03-26T01:30:33;10.9;75.6
79301;SHT31;68755;51.984;5.646;2023-03-26T01:33:16;10.9;75.5
79301;SHT31;68755;51.984;5.646;2023-03-26T01:35:53;10.9;75.6
79301;SHT31;68755;51.984;5.646;2023-03-26T01:38:34;10.9;75.7
79301;SHT31;68755;51.984;5.646;2023-03-26T01:41:09;10.9;75.5
79301;SHT31;68755;51.984;5.646;2023-03-26T01:43:45;10.9;75.6
79301;SHT31;68755;51.984;5.646;2023-03-26T01:46:17;10.9;75.6
79301;SHT31;68755;51.984;5.646;2023-03-26T01:48:50;10.9;75.5
79301;SHT31;68755;51.984;5.646;2023-03-26T01:51:28;10.9;75.6
79301;SHT31;68755;51.984;5.646;2023-03-26T01:54:01;10.9;75.7
79301;SHT31;68755;51.984;5.646;2023-03-26T01:56:41;10.9;75.7
79301;SHT31;68755;51.984;5.646;2023-03-26T01:59:31;10.8;75.9
79301;SHT31;68755;51.984;5.646;2023-03-26T02:02:10;10.8;75.9
79301;SHT31;68755;51.984;5.646;2023-03-26T02:04:50;10.8;75.9
79301;SHT31;68755;51.984;5.646;2023-03-26T02:07:25;10.8;75.9
79301;SHT31;68755;51.984;5.646;2023-03-26T02:10:07;10.8;76.0
79301;SHT31;68755;51.984;5.646;2023-03-26T02:12:40;10.8;75.8
79301;SHT31;68755;51.984;5.646;2023-03-26T02:15:11;10.8;75.9
79301;SHT31;68755;51.984;5.646;2023-03-26T02:17:44;10.8;75.9
79301;SHT31;68755;51.984;5.646;2023-03-26T02:20:19;10.8;75.8
79301;SHT31;68755;51.984;5.646;2023-03-26T02:22:49;10.8;75.9
79301;SHT31;68755;51.984;5.646;2023-03-26T02:25:20;10.8;76.0
79301;SHT31;68755;51.984;5.646;2023-03-26T02:27:51;10.8;76.0
79301;SHT31;68755;51.984;5.646;2023-03-26T02:30:24;10.8;75.9
79301;SHT31;68755;51.984;5.646;2023-03-26T02:32:56;10.8;76.0
79301;SHT31;68755;51.984;5.646;2023-03-26T02:35:26;10.8;75.9
79301;SHT31;68755;51.984;5.646;2023-03-26T02:37:56;10.8;75.9
79301;SHT31;68755;51.984;5.646;2023-03-26T02:40:26;10.8;75.8
79301;SHT31;68755;51.984;5.646;2023-03-26T02:42:55;10.8;76.0
79301;SHT31;68755;51.984;5.646;2023-03-26T02:45:25;10.8;75.9
79301;SHT31;68755;51.984;5.646;2023-03-26T02:47:55;10.8;75.9
79301;SHT31;68755;51.984;5.646;2023-03-26T02:50:27;10.8;76.0
79301;SHT31;68755;51.984;5.646;2023-03-26T02:52:59;10.8;76.0
79301;SHT31;68755;51.984;5.646;2023-03-26T02:55:29;10.8;76.1
79301;SHT31;68755;51.984;5.646;2023-03-26T02:57:59;10.8;76.0
79301;SHT31;68755;51.984;5.646;2023-03-26T03:00:29;10.8;76.0
79301;SHT31;68755;51.984;5.646;2023-03-26T03:03:00;10.8;76.0
79301;SHT31;68755;51.984;5.646;2023-03-26T03:05:31;10.8;76.1
79301;SHT31;68755;51.984;5.646;2023-03-26T03:08:04;10.8;76.0
79301;SHT31;68755;51.984;5.646;2023-03-26T03:10:34;10.8;76.0
79301;SHT31;68755;51.984;5.646;2023-03-26T03:13:06;10.8;76.1
79301;SHT31;68755;51.984;5.646;2023-03-26T03:15:35;10.8;76.1
79301;SHT31;68755;51.984;5.646;2023-03-26T03:18:05;10.8;76.1
79301;SHT31;68755;51.984;5.646;2023-03-26T03:20:35;10.8;75.9
79301;SHT31;68755;51.984;5.646;2023-03-26T03:23:05;10.8;75.9
79301;SHT31;68755;51.984;5.646;2023-03-26T03:25:35;10.8;75.8
79301;SHT31;68755;51.984;5.646;2023-03-26T03:28:07;10.8;76.0
79301;SHT31;68755;51.984;5.646;2023-03-26T03:30:37;10.8;76.2
79301;SHT31;68755;51.984;5.646;2023-03-26T03:33:07;10.8;76.1
79301;SHT31;68755;51.984;5.646;2023-03-26T03:35:37;10.8;76.2
79301;SHT31;68755;51.984;5.646;2023-03-26T03:38:09;10.8;76.0
79301;SHT31;68755;51.984;5.646;2023-03-26T03:40:39;10.8;75.7
79301;SHT31;68755;51.984;5.646;2023-03-26T03:43:09;10.8;75.7
79301;SHT31;68755;51.984;5.646;2023-03-26T03:45:38;10.8;75.5
79301;SHT31;68755;51.984;5.646;2023-03-26T03:48:08;10.8;75.4
79301;SHT31;68755;51.984;5.646;2023-03-26T03:50:38;10.8;75.4
79301;SHT31;68755;51.984;5.646;2023-03-26T03:53:08;10.8;75.0
79301;SHT31;68755;51.984;5.646;2023-03-26T03:55:43;10.8;74.9
79301;SHT31;68755;51.984;5.646;2023-03-26T03:58:17;10.8;74.9
79301;SHT31;68755;51.984;5.646;2023-03-26T04:00:50;10.8;74.6
79301;SHT31;68755;51.984;5.646;2023-03-26T04:03:20;10.8;74.6
79301;SHT31;68755;51.984;5.646;2023-03-26T04:05:50;10.8;74.6
79301;SHT31;68755;51.984;5.646;2023-03-26T04:08:22;10.8;74.5
79301;SHT31;68755;51.984;5.646;2023-03-26T04:10:52;10.8;74.5
79301;SHT31;68755;51.984;5.646;2023-03-26T04:13:22;10.9;74.4
79301;SHT31;68755;51.984;5.646;2023-03-26T04:15:52;10.9;74.7
79301;SHT31;68755;51.984;5.646;2023-03-26T04:18:22;10.9;74.5
79301;SHT31;68755;51.984;5.646;2023-03-26T04:20:53;10.9;74.4
79301;SHT31;68755;51.984;5.646;2023-03-26T04:23:22;10.9;74.7
79301;SHT31;68755;51.984;5.646;2023-03-26T04:25:53;10.9;74.8
79301;SHT31;68755;51.984;5.646;2023-03-26T04:28:29;10.9;74.4
79301;SHT31;68755;51.984;5.646;2023-03-26T04:31:01;10.9;74.5
79301;SHT31;68755;51.984;5.646;2023-03-26T04:33:34;10.9;74.6
79301;SHT31;68755;51.984;5.646;2023-03-26T04:36:07;10.9;74.5
79301;SHT31;68755;51.984;5.646;2023-03-26T04:38:41;10.9;74.4
79301;SHT31;68755;51.984;5.646;2023-03-26T04:41:14;10.9;73.7
79301;SHT31;68755;51.984;5.646;2023-03-26T04:43:44;11.0;73.4
79301;SHT31;68755;51.984;5.646;2023-03-26T04:46:17;11.0;73.1
79301;SHT31;68755;51.984;5.646;2023-03-26T04:48:48;11.0;73.5
79301;SHT31;68755;51.984;5.646;2023-03-26T04:51:20;11.0;73.1
79301;SHT31;68755;51.984;5.646;2023-03-26T04:53:56;11.0;73.0
79301;SHT31;68755;51.984;5.646;2023-03-26T04:56:35;11.0;73.0
79301;SHT31;68755;51.984;5.646;2023-03-26T04:59:12;11.0;73.1
79301;SHT31;68755;51.984;5.646;2023-03-26T05:01:43;11.1;73.6
79301;SHT31;68755;51.984;5.646;2023-03-26T05:04:14;11.1;73.3
79301;SHT31;68755;51.984;5.646;2023-03-26T05:06:44;11.1;73.2
79301;SHT31;68755;51.984;5.646;2023-03-26T05:09:14;11.2;72.7
79301;SHT31;68755;51.984;5.646;2023-03-26T05:11:46;11.2;72.5
79301;SHT31;68755;51.984;5.646;2023-03-26T05:14:17;11.3;72.2
79301;SHT31;68755;51.984;5.646;2023-03-26T05:16:49;11.3;72.2
79301;SHT31;68755;51.984;5.646;2023-03-26T05:19:21;11.3;71.9
79301;SHT31;68755;51.984;5.646;2023-03-26T05:21:51;11.3;71.5
79301;SHT31;68755;51.984;5.646;2023-03-26T05:24:21;11.3;71.4
79301;SHT31;68755;51.984;5.646;2023-03-26T05:26:51;11.3;71.3
79301;SHT31;68755;51.984;5.646;2023-03-26T05:29:21;11.2;71.4
79301;SHT31;68755;51.984;5.646;2023-03-26T05:31:50;11.2;71.5
79301;SHT31;68755;51.984;5.646;2023-03-26T05:34:20;11.1;71.5
79301;SHT31;68755;51.984;5.646;2023-03-26T05:36:51;11.1;71.5
79301;SHT31;68755;51.984;5.646;2023-03-26T05:39:21;11.0;71.7
79301;SHT31;68755;51.984;5.646;2023-03-26T05:41:53;11.0;71.8
79301;SHT31;68755;51.984;5.646;2023-03-26T05:44:23;10.9;72.2
79301;SHT31;68755;51.984;5.646;2023-03-26T05:46:53;10.9;72.3
79301;SHT31;68755;51.984;5.646;2023-03-26T05:49:22;10.9;72.5
79301;SHT31;68755;51.984;5.646;2023-03-26T05:51:52;10.8;72.5
79301;SHT31;68755;51.984;5.646;2023-03-26T05:54:22;10.8;72.6
79301;SHT31;68755;51.984;5.646;2023-03-26T05:56:52;10.8;72.6
79301;SHT31;68755;51.984;5.646;2023-03-26T05:59:23;10.8;72.5
79301;SHT31;68755;51.984;5.646;2023-03-26T06:01:53;10.8;72.8
79301;SHT31;68755;51.984;5.646;2023-03-26T06:04:23;10.8;72.7
79301;SHT31;68755;51.984;5.646;2023-03-26T06:06:55;10.8;72.7
79301;SHT31;68755;51.984;5.646;2023-03-26T06:09:26;10.8;72.5
79301;SHT31;68755;51.984;5.646;2023-03-26T06:11:56;10.8;72.2
79301;SHT31;68755;51.984;5.646;2023-03-26T06:14:26;10.8;72.3
79301;SHT31;68755;51.984;5.646;2023-03-26T06:16:55;10.8;72.5
79301;SHT31;68755;51.984;5.646;2023-03-26T06:19:31;10.8;72.5
79301;SHT31;68755;51.984;5.646;2023-03-26T06:22:01;10.7;72.8
79301;SHT31;68755;51.984;5.646;2023-03-26T06:24:32;10.7;72.9
79301;SHT31;68755;51.984;5.646;2023-03-26T06:27:03;10.7;73.4
79301;SHT31;68755;51.984;5.646;2023-03-26T06:29:35;10.7;72.9
79301;SHT31;68755;51.984;5.646;2023-03-26T06:32:05;10.7;73.1
79301;SHT31;68755;51.984;5.646;2023-03-26T06:34:35;10.7;73.3
79301;SHT31;68755;51.984;5.646;2023-03-26T06:37:04;10.6;73.1
79301;SHT31;68755;51.984;5.646;2023-03-26T06:39:34;10.6;73.3
79301;SHT31;68755;51.984;5.646;2023-03-26T06:42:04;10.6;73.4
79301;SHT31;68755;51.984;5.646;2023-03-26T06:44:34;10.6;73.4
79301;SHT31;68755;51.984;5.646;2023-03-26T06:47:04;10.6;73.3
79301;SHT31;68755;51.984;5.646;2023-03-26T06:49:34;10.6;73.7
79301;SHT31;68755;51.984;5.646;2023-03-26T06:52:08;10.6;73.8
79301;SHT31;68755;51.984;5.646;2023-03-26T06:54:39;10.6;74.1
79301;SHT31;68755;51.984;5.646;2023-03-26T06:57:09;10.6;74.4
79301;SHT31;68755;51.984;5.646;2023-03-26T06:59:39;10.6;74.0
79301;SHT31;68755;51.984;5.646;2023-03-26T07:02:10;10.6;74.2
79301;SHT31;68755;51.984;5.646;2023-03-26T07:04:40;10.6;74.3
79301;SHT31;68755;51.984;5.646;2023-03-26T07:07:10;10.6;74.6
79301;SHT31;68755;51.984;5.646;2023-03-26T07:09:41;10.6;74.8
79301;SHT31;68755;51.984;5.646;2023-03-26T07:12:10;10.6;74.8
79301;SHT31;68755;51.984;5.646;2023-03-26T07:14:40;10.6;74.7
79301;SHT31;68755;51.984;5.646;2023-03-26T07:17:12;10.6;74.6
79301;SHT31;68755;51.984;5.646;2023-03-26T07:19:42;10.6;75.4
79301;SHT31;68755;51.984;5.646;2023-03-26T07:22:18;10.6;75.4
79301;SHT31;68755;51.984;5.646;2023-03-26T07:24:49;10.6;75.3
79301;SHT31;68755;51.984;5.646;2023-03-26T07:27:34;10.6;75.4
79301;SHT31;68755;51.984;5.646;2023-03-26T07:30:08;10.6;75.2
79301;SHT31;68755;51.984;5.646;2023-03-26T07:32:51;10.7;75.2
79301;SHT31;68755;51.984;5.646;2023-03-26T07:35:27;10.7;75.3
79301;SHT31;68755;51.984;5.646;2023-03-26T07:38:16;10.7;75.1
79301;SHT31;68755;51.984;5.646;2023-03-26T07:40:59;10.7;75.1
79301;SHT31;68755;51.984;5.646;2023-03-26T07:43:43;10.7;75.1
79301;SHT31;68755;51.984;5.646;2023-03-26T07:46:27;10.7;75.1
79301;SHT31;68755;51.984;5.646;2023-03-26T07:48:59;10.7;75.0
79301;SHT31;68755;51.984;5.646;2023-03-26T07:51:30;10.7;75.4
79301;SHT31;68755;51.984;5.646;2023-03-26T07:54:00;10.7;75.3
79301;SHT31;68755;51.984;5.646;2023-03-26T07:56:35;10.7;75.5
79301;SHT31;68755;51.984;5.646;2023-03-26T07:59:28;10.7;75.4
79301;SHT31;68755;51.984;5.646;2023-03-26T08:02:33;10.8;75.3
79301;SHT31;68755;51.984;5.646;2023-03-26T08:05:14;10.8;75.4
79301;SHT31;68755;51.984;5.646;2023-03-26T08:07:57;10.9;74.8
79301;SHT31;68755;51.984;5.646;2023-03-26T08:10:35;10.9;75.0
79301;SHT31;68755;51.984;5.646;2023-03-26T08:13:18;10.9;75.2
79301;SHT31;68755;51.984;5.646;2023-03-26T08:16:00;10.9;75.2
79301;SHT31;68755;51.984;5.646;2023-03-26T08:18:41;10.9;75.2
79301;SHT31;68755;51.984;5.646;2023-03-26T08:21:21;11.0;74.9
79301;SHT31;68755;51.984;5.646;2023-03-26T08:24:00;11.0;75.6
79301;SHT31;68755;51.984;5.646;2023-03-26T08:26:41;11.0;75.2
79301;SHT31;68755;51.984;5.646;2023-03-26T08:29:20;11.1;75.1
79301;SHT31;68755;51.984;5.646;2023-03-26T08:31:54;11.1;75.1
79301;SHT31;68755;51.984;5.646;2023-03-26T08:34:25;11.1;74.9
79301;SHT31;68755;51.984;5.646;2023-03-26T08:36:55;11.1;75.1
79301;SHT31;68755;51.984;5.646;2023-03-26T08:39:25;11.1;75.0
79301;SHT31;68755;51.984;5.646;2023-03-26T08:42:30;11.1;75.0
79301;SHT31;68755;51.984;5.646;2023-03-26T08:46:14;11.0;75.5
79301;SHT31;68755;51.984;5.646;2023-03-26T08:55:36;10.9;76.5
79301;SHT31;68755;51.984;5.646;2023-03-26T09:01:49;10.9;76.0
79301;SHT31;68755;51.984;5.646;2023-03-26T09:04:57;10.9;76.0
79301;SHT31;68755;51.984;5.646;2023-03-26T09:08:03;10.8;75.9
79301;SHT31;68755;51.984;5.646;2023-03-26T09:10:49;10.8;76.3
79301;SHT31;68755;51.984;5.646;2023-03-26T09:19:02;10.8;76.7
79301;SHT31;68755;51.984;5.646;2023-03-26T09:26:47;10.8;76.6
79301;SHT31;68755;51.984;5.646;2023-03-26T09:29:39;10.8;76.7
79301;SHT31;68755;51.984;5.646;2023-03-26T09:32:56;10.8;76.8
79301;SHT31;68755;51.984;5.646;2023-03-26T09:36:48;10.8;77.0
79301;SHT31;68755;51.984;5.646;2023-03-26T09:39:34;10.8;77.1
79301;SHT31;68755;51.984;5.646;2023-03-26T09:42:20;10.8;76.9
79301;SHT31;68755;51.984;5.646;2023-03-26T09:45:14;10.8;77.5
79301;SHT31;68755;51.984;5.646;2023-03-26T09:48:10;10.8;76.9
79301;SHT31;68755;51.984;5.646;2023-03-26T09:50:58;10.8;76.8
79301;SHT31;68755;51.984;5.646;2023-03-26T09:53:55;10.7;77.2
79301;SHT31;68755;51.984;5.646;2023-03-26T09:56:42;10.7;77.0
79301;SHT31;68755;51.984;5.646;2023-03-26T09:59:36;10.7;77.0
79301;SHT31;68755;51.984;5.646;2023-03-26T10:02:27;10.7;76.7
79301;SHT31;68755;51.984;5.646;2023-03-26T10:05:31;10.7;76.9
79301;SHT31;68755;51.984;5.646;2023-03-26T10:08:29;10.7;77.4
79301;SHT31;68755;51.984;5.646;2023-03-26T10:11:06;10.7;77.2
79301;SHT31;68755;51.984;5.646;2023-03-26T10:13:53;10.7;77.8
79301;SHT31;68755;51.984;5.646;2023-03-26T10:16:30;10.7;77.6
79301;SHT31;68755;51.984;5.646;2023-03-26T10:19:25;10.7;78.7
79301;SHT31;68755;51.984;5.646;2023-03-26T10:22:11;10.8;78.5
79301;SHT31;68755;51.984;5.646;2023-03-26T10:25:10;10.8;78.7
79301;SHT31;68755;51.984;5.646;2023-03-26T10:27:49;10.9;77.9
79301;SHT31;68755;51.984;5.646;2023-03-26T10:30:48;11.0;79.6
79301;SHT31;68755;51.984;5.646;2023-03-26T10:33:33;11.0;77.7
79301;SHT31;68755;51.984;5.646;2023-03-26T10:36:26;11.1;76.8
79301;SHT31;68755;51.984;5.646;2023-03-26T10:43:58;11.2;76.1
79301;SHT31;68755;51.984;5.646;2023-03-26T10:49:48;11.3;74.4
79301;SHT31;68755;51.984;5.646;2023-03-26T10:52:24;11.3;74.8
79301;SHT31;68755;51.984;5.646;2023-03-26T10:55:07;11.3;74.7
79301;SHT31;68755;51.984;5.646;2023-03-26T10:57:44;11.3;75.1
79301;SHT31;68755;51.984;5.646;2023-03-26T11:00:19;11.3;75.7
79301;SHT31;68755;51.984;5.646;2023-03-26T11:03:15;11.3;75.0
79301;SHT31;68755;51.984;5.646;2023-03-26T11:05:53;11.2;76.0
79301;SHT31;68755;51.984;5.646;2023-03-26T11:08:32;11.2;76.3
79301;SHT31;68755;51.984;5.646;2023-03-26T11:11:18;11.2;75.8
79301;SHT31;68755;51.984;5.646;2023-03-26T11:13:56;11.2;75.8
79301;SHT31;68755;51.984;5.646;2023-03-26T11:16:38;11.1;75.5
79301;SHT31;68755;51.984;5.646;2023-03-26T11:19:21;11.1;75.1
79301;SHT31;68755;51.984;5.646;2023-03-26T11:22:02;11.1;75.7
79301;SHT31;68755;51.984;5.646;2023-03-26T11:25:03;11.0;76.5
79301;SHT31;68755;51.984;5.646;2023-03-26T11:27:47;11.0;78.1
79301;SHT31;68755;51.984;5.646;2023-03-26T11:30:31;11.0;76.8
79301;SHT31;68755;51.984;5.646;2023-03-26T11:33:08;11.0;75.5
79301;SHT31;68755;51.984;5.646;2023-03-26T11:35:45;11.0;76.3
79301;SHT31;68755;51.984;5.646;2023-03-26T11:38:20;10.9;75.6
79301;SHT31;68755;51.984;5.646;2023-03-26T11:40:55;10.9;75.5
79301;SHT31;68755;51.984;5.646;2023-03-26T11:43:31;10.9;75.1
79301;SHT31;68755;51.984;5.646;2023-03-26T11:46:05;10.8;76.1
79301;SHT31;68755;51.984;5.646;2023-03-26T11:48:40;10.8;75.7
79301;SHT31;68755;51.984;5.646;2023-03-26T11:51:15;10.7;76.1
79301;SHT31;68755;51.984;5.646;2023-03-26T11:53:47;10.7;75.8
79301;SHT31;68755;51.984;5.646;2023-03-26T11:56:27;10.7;75.4
79301;SHT31;68755;51.984;5.646;2023-03-26T11:59:03;10.6;75.5
79301;SHT31;68755;51.984;5.646;2023-03-26T12:01:49;10.6;75.7
79301;SHT31;68755;51.984;5.646;2023-03-26T12:04:27;10.6;75.7
79301;SHT31;68755;51.984;5.646;2023-03-26T12:07:06;10.6;75.8
79301;SHT31;68755;51.984;5.646;2023-03-26T12:09:50;10.6;76.4
79301;SHT31;68755;51.984;5.646;2023-03-26T12:12:21;10.6;75.9
79301;SHT31;68755;51.984;5.646;2023-03-26T12:14:54;10.6;74.7
79301;SHT31;68755;51.984;5.646;2023-03-26T12:17:31;10.6;74.1
79301;SHT31;68755;51.984;5.646;2023-03-26T12:20:29;10.5;74.3
79301;SHT31;68755;51.984;5.646;2023-03-26T12:22:59;10.5;73.8
79301;SHT31;68755;51.984;5.646;2023-03-26T12:25:31;10.5;74.4
79301;SHT31;68755;51.984;5.646;2023-03-26T12:28:03;10.5;74.3
79301;SHT31;68755;51.984;5.646;2023-03-26T12:30:35;10.5;74.4
79301;SHT31;68755;51.984;5.646;2023-03-26T12:33:15;10.4;74.7
79301;SHT31;68755;51.984;5.646;2023-03-26T12:35:45;10.4;74.1
79301;SHT31;68755;51.984;5.646;2023-03-26T12:38:24;10.4;74.3
79301;SHT31;68755;51.984;5.646;2023-03-26T12:41:07;10.4;74.2
79301;SHT31;68755;51.984;5.646;2023-03-26T12:43:41;10.4;74.7
79301;SHT31;68755;51.984;5.646;2023-03-26T12:46:26;10.4;74.7
79301;SHT31;68755;51.984;5.646;2023-03-26T12:49:01;10.5;73.6
79301;SHT31;68755;51.984;5.646;2023-03-26T12:51:45;10.5;74.2
79301;SHT31;68755;51.984;5.646;2023-03-26T12:54:33;10.5;74.0
79301;SHT31;68755;51.984;5.646;2023-03-26T12:57:16;10.5;73.9
79301;SHT31;68755;51.984;5.646;2023-03-26T13:00:04;10.6;74.3
79301;SHT31;68755;51.984;5.646;2023-03-26T13:07:53;10.6;73.1
79301;SHT31;68755;51.984;5.646;2023-03-26T13:10:36;10.6;73.3
79301;SHT31;68755;51.984;5.646;2023-03-26T13:13:25;10.6;73.1
79301;SHT31;68755;51.984;5.646;2023-03-26T13:16:01;10.6;72.0
79301;SHT31;68755;51.984;5.646;2023-03-26T13:18:43;10.7;72.7
79301;SHT31;68755;51.984;5.646;2023-03-26T13:21:25;10.7;72.2
79301;SHT31;68755;51.984;5.646;2023-03-26T13:24:03;10.7;73.0
79301;SHT31;68755;51.984;5.646;2023-03-26T13:26:54;10.7;73.0
79301;SHT31;68755;51.984;5.646;2023-03-26T13:29:38;10.7;73.6
79301;SHT31;68755;51.984;5.646;2023-03-26T13:32:17;10.8;72.8
79301;SHT31;68755;51.984;5.646;2023-03-26T13:35:02;10.8;72.9
79301;SHT31;68755;51.984;5.646;2023-03-26T13:37:43;10.8;72.5
79301;SHT31;68755;51.984;5.646;2023-03-26T13:40:27;10.9;73.6
79301;SHT31;68755;51.984;5.646;2023-03-26T13:43:21;10.9;71.9
79301;SHT31;68755;51.984;5.646;2023-03-26T13:45:59;11.0;70.4
79301;SHT31;68755;51.984;5.646;2023-03-26T13:48:38;11.0;70.0
79301;SHT31;68755;51.984;5.646;2023-03-26T13:51:15;11.0;68.7
79301;SHT31;68755;51.984;5.646;2023-03-26T13:53:57;11.1;68.5
79301;SHT31;68755;51.984;5.646;2023-03-26T13:56:34;11.1;68.3
79301;SHT31;68755;51.984;5.646;2023-03-26T13:59:13;11.2;66.8
79301;SHT31;68755;51.984;5.646;2023-03-26T14:01:51;11.2;68.5
79301;SHT31;68755;51.984;5.646;2023-03-26T14:04:28;11.3;67.4
79301;SHT31;68755;51.984;5.646;2023-03-26T14:07:04;11.3;67.5
79301;SHT31;68755;51.984;5.646;2023-03-26T14:09:43;11.3;66.0
79301;SHT31;68755;51.984;5.646;2023-03-26T14:12:25;11.4;66.7
79301;SHT31;68755;51.984;5.646;2023-03-26T14:14:59;11.4;65.2
79301;SHT31;68755;51.984;5.646;2023-03-26T14:17:35;11.4;64.1
79301;SHT31;68755;51.984;5.646;2023-03-26T14:24:29;11.4;62.0
79301;SHT31;68755;51.984;5.646;2023-03-26T14:27:17;11.5;60.7
79301;SHT31;68755;51.984;5.646;2023-03-26T14:30:52;11.5;61.1
79301;SHT31;68755;51.984;5.646;2023-03-26T14:33:40;11.5;60.6
79301;SHT31;68755;51.984;5.646;2023-03-26T14:36:21;11.5;59.5
79301;SHT31;68755;51.984;5.646;2023-03-26T14:39:45;11.5;59.9
79301;SHT31;68755;51.984;5.646;2023-03-26T14:42:24;11.5;60.2
79301;SHT31;68755;51.984;5.646;2023-03-26T14:45:57;11.5;60.4
79301;SHT31;68755;51.984;5.646;2023-03-26T14:50:22;11.5;60.8
79301;SHT31;68755;51.984;5.646;2023-03-26T14:52:57;11.6;59.2
79301;SHT31;68755;51.984;5.646;2023-03-26T14:55:50;11.6;58.1
79301;SHT31;68755;51.984;5.646;2023-03-26T15:08:12;11.6;55.7
79301;SHT31;68755;51.984;5.646;2023-03-26T15:11:52;11.5;56.9
79301;SHT31;68755;51.984;5.646;2023-03-26T15:15:29;11.4;56.0
79301;SHT31;68755;51.984;5.646;2023-03-26T15:18:55;11.4;55.8
79301;SHT31;68755;51.984;5.646;2023-03-26T15:29:13;11.2;56.1
79301;SHT31;68755;51.984;5.646;2023-03-26T15:32:11;11.2;56.1
79301;SHT31;68755;51.984;5.646;2023-03-26T15:35:09;11.1;55.7
79301;SHT31;68755;51.984;5.646;2023-03-26T15:38:12;11.1;55.7
79301;SHT31;68755;51.984;5.646;2023-03-26T15:43:07;11.1;55.6
79301;SHT31;68755;51.984;5.646;2023-03-26T15:45:40;11.0;56.2
79301;SHT31;68755;51.984;5.646;2023-03-26T15:48:35;11.0;56.5
79301;SHT31;68755;51.984;5.646;2023-03-26T15:51:26;11.0;55.9
79301;SHT31;68755;51.984;5.646;2023-03-26T15:54:08;11.0;55.0
79301;SHT31;68755;51.984;5.646;2023-03-26T15:57:01;11.0;54.6
79301;SHT31;68755;51.984;5.646;2023-03-26T15:59:41;11.0;53.7
79301;SHT31;68755;51.984;5.646;2023-03-26T16:02:25;10.9;54.4
79301;SHT31;68755;51.984;5.646;2023-03-26T16:05:17;10.9;54.7
79301;SHT31;68755;51.984;5.646;2023-03-26T16:07:57;10.9;55.2
79301;SHT31;68755;51.984;5.646;2023-03-26T16:10:40;10.9;55.2
79301;SHT31;68755;51.984;5.646;2023-03-26T16:13:25;10.8;54.8
79301;SHT31;68755;51.984;5.646;2023-03-26T16:18:56;10.8;55.5
79301;SHT31;68755;51.984;5.646;2023-03-26T16:22:00;10.9;55.1
79301;SHT31;68755;51.984;5.646;2023-03-26T16:24:35;10.9;55.0
79301;SHT31;68755;51.984;5.646;2023-03-26T16:28:19;10.9;54.1
79301;SHT31;68755;51.984;5.646;2023-03-26T16:32:03;11.0;53.0
79301;SHT31;68755;51.984;5.646;2023-03-26T16:34:45;11.0;53.0
79301;SHT31;68755;51.984;5.646;2023-03-26T16:37:38;11.0;52.4
79301;SHT31;68755;51.984;5.646;2023-03-26T16:40:31;10.9;51.2
79301;SHT31;68755;51.984;5.646;2023-03-26T16:43:21;10.9;51.5
79301;SHT31;68755;51.984;5.646;2023-03-26T16:46:01;10.8;51.4
79301;SHT31;68755;51.984;5.646;2023-03-26T16:48:45;10.8;51.3
79301;SHT31;68755;51.984;5.646;2023-03-26T16:51:24;10.7;51.9
79301;SHT31;68755;51.984;5.646;2023-03-26T16:54:05;10.7;52.0
79301;SHT31;68755;51.984;5.646;2023-03-26T16:56:49;10.7;52.2
79301;SHT31;68755;51.984;5.646;2023-03-26T16:59:43;10.6;51.5
79301;SHT31;68755;51.984;5.646;2023-03-26T17:02:22;10.6;52.0
79301;SHT31;68755;51.984;5.646;2023-03-26T17:05:07;10.6;51.2
79301;SHT31;68755;51.984;5.646;2023-03-26T17:07:53;10.5;50.5
79301;SHT31;68755;51.984;5.646;2023-03-26T17:10:37;10.5;50.5
79301;SHT31;68755;51.984;5.646;2023-03-26T17:13:19;10.5;49.5
79301;SHT31;68755;51.984;5.646;2023-03-26T17:16:07;10.5;49.7
79301;SHT31;68755;51.984;5.646;2023-03-26T17:18:44;10.5;49.7
79301;SHT31;68755;51.984;5.646;2023-03-26T17:21:20;10.5;50.5
79301;SHT31;68755;51.984;5.646;2023-03-26T17:24:06;10.5;49.8
79301;SHT31;68755;51.984;5.646;2023-03-26T17:26:51;10.5;49.0
79301;SHT31;68755;51.984;5.646;2023-03-26T17:29:31;10.4;49.0
79301;SHT31;68755;51.984;5.646;2023-03-26T17:32:05;10.4;48.8
79301;SHT31;68755;51.984;5.646;2023-03-26T17:34:56;10.3;48.6
79301;SHT31;68755;51.984;5.646;2023-03-26T17:37:41;10.2;48.0
79301;SHT31;68755;51.984;5.646;2023-03-26T17:41:13;10.1;47.4
79301;SHT31;68755;51.984;5.646;2023-03-26T17:43:46;10.1;47.6
79301;SHT31;68755;51.984;5.646;2023-03-26T17:46:51;10.0;48.2
79301;SHT31;68755;51.984;5.646;2023-03-26T17:49:27;9.9;47.9
79301;SHT31;68755;51.984;5.646;2023-03-26T17:52:04;9.8;48.5
79301;SHT31;68755;51.984;5.646;2023-03-26T17:54:42;9.8;49.1
79301;SHT31;68755;51.984;5.646;2023-03-26T17:57:19;9.7;49.2
79301;SHT31;68755;51.984;5.646;2023-03-26T17:59:55;9.7;49.2
79301;SHT31;68755;51.984;5.646;2023-03-26T18:02:33;9.6;49.2
79301;SHT31;68755;51.984;5.646;2023-03-26T18:05:08;9.6;49.0
79301;SHT31;68755;51.984;5.646;2023-03-26T18:11:53;9.5;49.1
79301;SHT31;68755;51.984;5.646;2023-03-26T18:14:42;9.4;48.6
79301;SHT31;68755;51.984;5.646;2023-03-26T18:17:14;9.4;48.2
79301;SHT31;68755;51.984;5.646;2023-03-26T18:19:49;9.4;47.7
79301;SHT31;68755;51.984;5.646;2023-03-26T18:22:23;9.3;48.1
79301;SHT31;68755;51.984;5.646;2023-03-26T18:24:58;9.3;47.9
79301;SHT31;68755;51.984;5.646;2023-03-26T18:27:37;9.3;47.0